Time;durP1;ratioP1;P1;durP2;ratioP2;P2;SDS_P1;SDS_P2;PMS_P1;PMS_P2;Temp;Humidity;BMP_temperature;BMP_pressure;BME280_temperature;BME280_humidity;BME280_pressure;Samples;Min_cycle;Max_cycle;Signal;HPM_P1;HPM_P2
2023/06/02 00:01:49;;;;;;;13.00;4.87;;;;;;;12.07;80.58;101106.88;4918530;29;20411;-69
2023/06/02 00:04:23;;;;;;;6.60;4.27;;;;;;;12.04;80.77;101101.88;4917762;29;20709;-70
2023/06/02 00:07:03;;;;;;;4.23;3.50;;;;;;;12.05;80.77;101114.41;4911910;29;20511;-69
2023/06/02 00:09:39;;;;;;;12.83;4.57;;;;;;;11.94;81.15;101113.13;4917403;29;20453;-70
2023/06/02 00:12:10;;;;;;;11.03;4.60;;;;;;;11.91;81.65;101112.72;4917873;29;20966;-70
2023/06/02 00:14:42;;;;;;;8.80;5.33;;;;;;;11.92;81.44;101107.06;4916701;29;20434;-69
2023/06/02 00:17:12;;;;;;;9.80;4.13;;;;;;;11.91;81.35;101110.00;4918221;29;20405;-68
2023/06/02 00:19:42;;;;;;;9.70;5.03;;;;;;;11.86;81.94;101109.78;4917940;29;20462;-69
2023/06/02 00:22:13;;;;;;;16.33;5.23;;;;;;;11.83;81.74;101107.44;4916056;29;21006;-69
2023/06/02 00:24:43;;;;;;;7.73;4.63;;;;;;;11.81;82.04;101109.56;4913054;29;20433;-70
2023/06/02 00:27:12;;;;;;;20.23;4.77;;;;;;;11.73;82.34;101110.56;4918478;29;20448;-69
2023/06/02 00:29:41;;;;;;;8.80;4.33;;;;;;;11.94;82.28;101106.84;4919996;29;20797;-70
2023/06/02 00:32:10;;;;;;;9.13;4.50;;;;;;;11.97;81.59;101107.28;4921388;29;20497;-68
2023/06/02 00:34:39;;;;;;;14.83;5.40;;;;;;;11.74;82.09;101107.66;4921721;29;20441;-71
2023/06/02 00:37:08;;;;;;;16.70;5.30;;;;;;;11.62;82.70;101103.81;4918385;29;20445;-68
2023/06/02 00:39:39;;;;;;;10.23;4.07;;;;;;;11.70;82.47;101106.38;4924310;29;20476;-69
2023/06/02 00:42:11;;;;;;;5.83;3.70;;;;;;;11.82;82.40;101103.06;4926631;29;20863;-69
2023/06/02 00:44:39;;;;;;;9.60;4.20;;;;;;;11.75;82.30;101101.19;4914943;29;20420;-71
2023/06/02 00:47:10;;;;;;;18.83;6.23;;;;;;;11.68;82.54;101099.47;4917196;29;20574;-70
2023/06/02 00:49:39;;;;;;;12.03;4.60;;;;;;;11.70;83.15;101109.06;4918127;29;21016;-70
2023/06/02 00:52:09;;;;;;;15.43;5.37;;;;;;;11.53;83.19;101110.47;4918069;29;20444;-70
2023/06/02 00:54:39;;;;;;;9.40;4.77;;;;;;;11.56;84.21;101109.22;4915184;29;21012;-71
2023/06/02 00:57:09;;;;;;;17.07;4.50;;;;;;;11.89;81.93;101109.34;4917547;29;20449;-70
2023/06/02 00:59:38;;;;;;;12.13;4.70;;;;;;;11.74;81.83;101107.66;4916792;29;20445;-70
2023/06/02 01:02:08;;;;;;;18.43;5.20;;;;;;;11.67;83.41;101112.16;4918037;29;20498;-69
2023/06/02 01:04:40;;;;;;;10.30;6.80;;;;;;;11.74;82.62;101107.66;4917023;29;20774;-69
2023/06/02 01:07:10;;;;;;;12.83;5.60;;;;;;;11.99;81.57;101115.22;4917231;29;20440;-69
2023/06/02 01:09:41;;;;;;;12.87;4.73;;;;;;;11.69;82.13;101120.94;4917236;29;20449;-69
2023/06/02 01:12:12;;;;;;;7.93;4.30;;;;;;;11.66;82.00;101120.53;4917195;29;20548;-69
2023/06/02 01:14:41;;;;;;;8.87;4.43;;;;;;;11.58;82.31;101116.09;4916920;29;20854;-69
2023/06/02 01:17:10;;;;;;;10.70;6.30;;;;;;;11.94;80.83;101117.72;4916979;29;20567;-69
2023/06/02 01:19:40;;;;;;;8.33;4.30;;;;;;;11.66;81.55;101113.25;4915885;29;20441;-70
2023/06/02 01:22:13;;;;;;;11.03;4.87;;;;;;;11.47;82.99;101119.44;4916675;29;20512;-68
2023/06/02 01:24:47;;;;;;;10.40;5.30;;;;;;;12.25;81.76;101122.56;4912074;29;20489;-69
2023/06/02 01:27:16;;;;;;;13.57;4.30;;;;;;;11.79;80.85;101122.47;4913880;29;20796;-68
2023/06/02 01:29:47;;;;;;;11.17;4.33;;;;;;;11.63;83.06;101135.31;4915168;29;20435;-69
2023/06/02 01:32:22;;;;;;;15.47;5.07;;;;;;;11.46;83.98;101130.47;4915217;29;20996;-68
2023/06/02 01:34:56;;;;;;;16.27;4.80;;;;;;;11.68;82.02;101132.81;4909869;29;20476;-69
2023/06/02 01:37:29;;;;;;;18.87;5.27;;;;;;;11.25;83.89;101131.41;4912548;29;20444;-71
2023/06/02 01:40:03;;;;;;;10.73;5.00;;;;;;;11.12;85.17;101134.03;4914503;29;20550;-69
2023/06/02 01:42:33;;;;;;;13.87;4.77;;;;;;;11.31;84.05;101141.44;4914358;29;20421;-68
2023/06/02 01:45:03;;;;;;;10.17;5.00;;;;;;;11.16;84.93;101135.31;4914645;29;20544;-68
2023/06/02 01:47:32;;;;;;;11.83;4.23;;;;;;;11.82;84.37;101139.16;4914333;29;20476;-69
2023/06/02 01:50:01;;;;;;;8.20;3.80;;;;;;;11.85;81.67;101140.63;4916058;29;20397;-69
2023/06/02 01:52:30;;;;;;;10.70;4.37;;;;;;;11.70;82.63;101138.06;4915190;29;20527;-69
2023/06/02 01:55:00;;;;;;;12.43;4.70;;;;;;;11.73;82.30;101143.94;4915586;29;20523;-69
2023/06/02 01:57:30;;;;;;;12.27;4.67;;;;;;;12.03;79.82;101140.88;4913231;29;20453;-72
2023/06/02 01:59:59;;;;;;;9.17;4.07;;;;;;;11.79;82.21;101142.28;4911658;29;20421;-71
2023/06/02 02:02:28;;;;;;;16.10;6.60;;;;;;;12.04;80.77;101139.84;4914418;29;20436;-70
2023/06/02 02:04:57;;;;;;;10.30;5.20;;;;;;;12.78;77.46;101145.09;4916382;29;20461;-69
2023/06/02 02:07:26;;;;;;;7.70;4.07;;;;;;;12.61;77.36;101150.97;4916011;29;20437;-69
2023/06/02 02:09:55;;;;;;;9.70;5.17;;;;;;;11.99;78.89;101145.88;4916183;29;20432;-70
2023/06/02 02:12:25;;;;;;;9.63;4.30;;;;;;;12.09;79.69;101134.63;4916146;29;20509;-69
2023/06/02 02:14:56;;;;;;;9.40;3.87;;;;;;;11.41;80.95;101138.34;4913721;29;20476;-71
2023/06/02 02:17:25;;;;;;;11.60;4.43;;;;;;;11.11;83.91;101148.63;4914300;29;20924;-69
2023/06/02 02:19:56;;;;;;;10.33;4.60;;;;;;;11.57;82.79;101144.25;4916274;29;20440;-70
2023/06/02 02:22:25;;;;;;;12.27;4.57;;;;;;;11.05;83.68;101138.56;4915451;29;20459;-70
2023/06/02 02:24:54;;;;;;;7.50;4.20;;;;;;;10.88;85.57;101149.72;4915616;29;21217;-69
2023/06/02 02:27:25;;;;;;;13.63;5.00;;;;;;;11.16;84.70;101152.41;4915568;29;20485;-70
2023/06/02 02:29:54;;;;;;;17.87;4.97;;;;;;;10.61;85.52;101155.97;4914473;29;20959;-72
2023/06/02 02:32:23;;;;;;;15.40;4.30;;;;;;;10.57;86.55;101154.69;4913716;29;20434;-71
2023/06/02 02:34:53;;;;;;;10.20;6.30;;;;;;;10.89;84.96;101170.34;4915598;29;20893;-71
2023/06/02 02:37:23;;;;;;;11.82;4.65;;;;;;;10.32;87.14;101158.84;4914451;29;20196;-70
2023/06/02 02:40:08;;;;;;;11.80;4.60;;;;;;;10.41;88.38;101163.91;4914770;29;20205;-72
2023/06/02 02:42:39;;;;;;;7.32;4.10;;;;;;;11.87;83.10;101154.81;4915319;29;20193;-70
2023/06/02 02:45:12;;;;;;;19.10;4.95;;;;;;;11.88;80.68;101160.03;4914757;29;20220;-72
2023/06/02 02:47:42;;;;;;;7.07;4.13;;;;;;;11.59;81.82;101160.31;4916035;29;20195;-73
2023/06/02 02:50:12;;;;;;;11.43;5.47;;;;;;;11.67;79.35;101165.56;4915452;29;20513;-70
2023/06/02 02:52:43;;;;;;;17.60;4.70;;;;;;;11.52;81.25;101168.41;4913035;29;20483;-68
2023/06/02 02:55:14;;;;;;;6.73;3.97;;;;;;;11.95;79.56;101170.91;4915467;29;20807;-70
2023/06/02 02:57:45;;;;;;;9.87;4.53;;;;;;;12.00;78.92;101171.13;4913268;29;20495;-69
2023/06/02 03:00:15;;;;;;;14.63;6.10;;;;;;;12.20;79.40;101178.25;4916610;29;20473;-70
2023/06/02 03:02:45;;;;;;;12.63;4.60;;;;;;;12.42;76.71;101176.22;4916507;29;20437;-71
2023/06/02 03:05:14;;;;;;;10.97;4.43;;;;;;;11.90;77.53;101176.13;4914242;29;20484;-71
2023/06/02 03:07:46;;;;;;;11.63;4.20;;;;;;;12.30;76.63;101186.00;4915129;29;20867;-68
2023/06/02 03:10:16;;;;;;;7.73;4.00;;;;;;;11.96;76.50;101186.13;4911744;29;20474;-71
2023/06/02 03:12:48;;;;;;;17.43;5.10;;;;;;;11.21;79.64;101197.84;4913510;29;20466;-69
2023/06/02 03:15:19;;;;;;;13.90;4.10;;;;;;;10.64;82.89;101185.38;4913985;29;20473;-70
2023/06/02 03:17:50;;;;;;;16.13;4.90;;;;;;;10.65;83.81;101192.44;4913889;29;20864;-71
2023/06/02 03:20:21;;;;;;;9.77;4.72;;;;;;;10.61;83.84;101183.03;4913964;29;20416;-70
2023/06/02 03:22:52;;;;;;;14.20;4.73;;;;;;;10.63;83.73;101182.84;4914033;29;20200;-72
2023/06/02 03:25:21;;;;;;;18.20;7.40;;;;;;;10.77;83.04;101182.75;4911718;29;20997;-70
2023/06/02 03:27:54;;;;;;;7.57;3.93;;;;;;;10.63;84.10;101194.50;4914132;29;20477;-70
2023/06/02 03:30:23;;;;;;;14.27;5.40;;;;;;;10.92;82.60;101190.78;4915554;29;20464;-70
2023/06/02 03:32:57;;;;;;;14.05;4.88;;;;;;;10.94;82.15;101199.53;4917283;29;20216;-70
2023/06/02 03:35:28;;;;;;;10.80;4.10;;;;;;;11.47;80.13;101194.47;4923660;29;20221;-72
2023/06/02 03:37:58;;;;;;;13.00;4.90;;;;;;;11.89;77.78;101188.00;4919837;29;20442;-70
2023/06/02 03:40:28;;;;;;;8.87;4.80;;;;;;;12.17;77.05;101196.84;4914024;29;20480;-70
2023/06/02 03:42:59;;;;;;;13.30;4.70;;;;;;;11.32;78.78;101189.19;4913848;29;20445;-71
2023/06/02 03:45:28;;;;;;;14.83;4.43;;;;;;;11.36;79.68;101187.72;4914640;29;20559;-71
2023/06/02 03:47:57;;;;;;;9.40;5.23;;;;;;;11.21;79.65;101187.84;4913255;29;20818;-69
2023/06/02 03:50:27;;;;;;;10.47;3.53;;;;;;;11.51;80.34;101193.88;4913111;29;20450;-69
2023/06/02 03:52:56;;;;;;;11.25;4.43;;;;;;;11.42;79.47;101197.78;4917230;29;20479;-71
2023/06/02 03:55:25;;;;;;;9.10;5.10;;;;;;;11.24;79.31;101202.84;4915260;29;20482;-69
2023/06/02 03:57:54;;;;;;;12.97;5.80;;;;;;;11.63;79.78;101203.09;4920862;29;20463;-69
2023/06/02 04:00:25;;;;;;;14.90;5.20;;;;;;;11.20;79.42;101217.84;4914886;29;20487;-71
2023/06/02 04:02:55;;;;;;;10.97;4.57;;;;;;;11.60;79.03;101214.34;4919453;29;20553;-70
2023/06/02 04:05:24;;;;;;;11.43;4.17;;;;;;;11.17;79.52;101213.69;4916695;29;20469;-71
2023/06/02 04:07:56;;;;;;;14.63;4.90;;;;;;;11.31;79.12;101220.00;4920270;29;20962;-71
2023/06/02 04:10:28;;;;;;;10.93;4.67;;;;;;;11.50;78.32;101216.56;4916605;29;20429;-71
2023/06/02 04:12:57;;;;;;;11.63;5.13;;;;;;;11.34;79.66;101215.03;4917595;29;20468;-71
2023/06/02 04:15:28;;;;;;;21.27;5.67;;;;;;;11.55;77.86;101219.53;4916936;29;20476;-68
2023/06/02 04:17:57;;;;;;;10.13;4.60;;;;;;;11.10;79.77;101229.03;4920812;29;20450;-70
2023/06/02 04:20:27;;;;;;;9.50;4.67;;;;;;;11.42;80.03;101230.28;4918452;29;20445;-70
2023/06/02 04:22:56;;;;;;;13.87;4.93;;;;;;;11.58;78.05;101227.25;4915321;29;20964;-69
2023/06/02 04:25:25;;;;;;;12.43;5.23;;;;;;;11.71;78.15;101231.91;4915719;29;20516;-70
2023/06/02 04:27:54;;;;;;;14.83;4.90;;;;;;;11.30;79.04;101240.84;4911015;29;20440;-71
2023/06/02 04:30:23;;;;;;;8.87;4.80;;;;;;;11.64;78.53;101231.88;4916134;29;20468;-71
2023/06/02 04:32:54;;;;;;;19.53;5.60;;;;;;;11.46;78.23;101233.44;4912848;29;20512;-70
2023/06/02 04:35:23;;;;;;;17.23;5.40;;;;;;;11.74;78.07;101232.38;4913987;29;20477;-69
2023/06/02 04:37:53;;;;;;;16.57;5.20;;;;;;;11.26;79.35;101245.00;4911833;29;20452;-71
2023/06/02 04:40:22;;;;;;;8.13;4.37;;;;;;;11.10;80.33;101241.72;4916031;29;20544;-70
2023/06/02 04:42:52;;;;;;;16.73;4.33;;;;;;;10.88;81.55;101233.66;4915256;29;20484;-68
2023/06/02 04:45:21;;;;;;;12.13;4.80;;;;;;;11.43;80.68;101252.78;4917459;29;20464;-69
2023/06/02 04:47:51;;;;;;;15.00;4.47;;;;;;;11.06;81.01;101246.72;4912459;29;20416;-71
2023/06/02 04:50:21;;;;;;;16.17;4.97;;;;;;;10.96;81.82;101242.66;4916019;29;20465;-70
2023/06/02 04:52:50;;;;;;;17.10;6.57;;;;;;;11.16;81.24;101249.06;4919221;29;20439;-68
2023/06/02 04:55:20;;;;;;;7.83;4.73;;;;;;;11.25;81.23;101248.72;4922708;29;20469;-69
2023/06/02 04:57:53;;;;;;;21.17;5.17;;;;;;;11.53;79.12;101248.69;4920440;29;20835;-71
2023/06/02 05:00:22;;;;;;;13.87;4.73;;;;;;;11.54;79.17;101252.22;4916942;29;20457;-70
2023/06/02 05:02:51;;;;;;;13.03;5.70;;;;;;;11.52;79.23;101255.13;4917295;29;20488;-68
2023/06/02 05:05:22;;;;;;;21.13;5.57;;;;;;;11.41;80.39;101253.00;4916034;29;21084;-70
2023/06/02 05:07:51;;;;;;;15.53;5.60;;;;;;;11.50;80.03;101259.94;4919121;29;20507;-69
2023/06/02 05:10:21;;;;;;;14.10;6.00;;;;;;;11.72;79.95;101256.13;4916949;29;20497;-70
2023/06/02 05:12:52;;;;;;;10.70;4.60;;;;;;;12.13;78.44;101253.38;4917166;29;20431;-69
2023/06/02 05:15:21;;;;;;;9.30;4.57;;;;;;;12.02;76.33;101261.25;4917175;29;20465;-71
2023/06/02 05:17:53;;;;;;;16.47;6.17;;;;;;;11.75;77.74;101255.75;4910017;29;20453;-70
2023/06/02 05:20:25;;;;;;;9.97;5.10;;;;;;;11.54;78.75;101261.22;4916129;29;20416;-71
2023/06/02 05:22:54;;;;;;;19.87;6.27;;;;;;;11.82;77.91;101254.91;4916794;29;20492;-70
2023/06/02 05:25:23;;;;;;;8.77;4.47;;;;;;;11.66;78.77;101256.06;4915915;29;20484;-71
2023/06/02 05:27:52;;;;;;;12.00;4.67;;;;;;;11.91;77.87;101261.88;4917311;29;20516;-71
2023/06/02 05:30:21;;;;;;;10.27;4.30;;;;;;;11.92;77.91;101258.09;4914301;29;20862;-70
2023/06/02 05:32:50;;;;;;;11.40;4.90;;;;;;;12.26;76.14;101266.16;4916133;29;20978;-69
2023/06/02 05:35:20;;;;;;;9.33;4.90;;;;;;;12.79;74.36;101268.97;4915437;29;20458;-68
2023/06/02 05:37:51;;;;;;;13.10;6.10;;;;;;;12.82;73.84;101272.13;4919043;29;20440;-70
2023/06/02 05:40:20;;;;;;;9.87;4.50;;;;;;;13.38;72.86;101275.25;4917237;29;20421;-69
2023/06/02 05:42:49;;;;;;;13.17;4.77;;;;;;;13.32;71.23;101289.69;4915189;29;20480;-71
2023/06/02 05:45:19;;;;;;;10.83;4.60;;;;;;;12.98;72.61;101279.00;4916528;29;20530;-72
2023/06/02 05:47:51;;;;;;;16.27;5.43;;;;;;;12.61;74.34;101291.31;4916113;29;21116;-70
2023/06/02 05:50:22;;;;;;;15.10;3.77;;;;;;;12.15;76.07;101286.56;4915220;29;20431;-70
2023/06/02 05:52:52;;;;;;;12.23;4.93;;;;;;;12.92;74.50;101285.28;4921895;29;20672;-69
2023/06/02 05:55:22;;;;;;;19.13;4.30;;;;;;;13.03;73.76;101288.19;4915474;29;20487;-69
2023/06/02 05:57:52;;;;;;;13.40;5.63;;;;;;;12.85;74.00;101289.88;4916667;29;20416;-70
2023/06/02 06:00:22;;;;;;;15.50;5.53;;;;;;;13.08;74.39;101302.00;4915376;29;20706;-70
2023/06/02 06:02:51;;;;;;;14.10;5.60;;;;;;;13.41;72.35;101301.16;4914839;29;20825;-70
2023/06/02 06:05:26;;;;;;;23.43;6.43;;;;;;;13.51;72.04;101298.06;4915723;29;20461;-68
2023/06/02 06:07:57;;;;;;;9.17;4.10;;;;;;;13.06;73.39;101303.28;4916945;29;20480;-69
2023/06/02 06:10:26;;;;;;;11.27;5.97;;;;;;;12.70;75.26;101303.63;4915136;29;20412;-71
2023/06/02 06:12:56;;;;;;;15.83;5.00;;;;;;;13.00;74.65;101310.38;4914723;29;20422;-70
2023/06/02 06:15:25;;;;;;;14.03;6.23;;;;;;;12.82;75.06;101306.59;4915596;29;20512;-70
2023/06/02 06:17:54;;;;;;;12.50;4.90;;;;;;;12.70;76.32;101308.22;4915813;29;20434;-71
2023/06/02 06:20:23;;;;;;;17.70;5.50;;;;;;;12.56;77.44;101310.91;4915291;29;20412;-70
2023/06/02 06:22:53;;;;;;;11.20;5.73;;;;;;;12.69;77.49;101309.25;4914521;29;21142;-72
2023/06/02 06:25:26;;;;;;;16.83;7.93;;;;;;;12.72;77.80;101312.44;4914519;29;20517;-70
2023/06/02 06:27:56;;;;;;;11.33;5.53;;;;;;;12.87;77.02;101309.53;4915729;29;20477;-70
2023/06/02 06:30:26;;;;;;;12.50;5.53;;;;;;;13.29;76.03;101309.16;4915367;29;20482;-70
2023/06/02 06:33:00;;;;;;;13.40;4.70;;;;;;;13.33;75.29;101310.41;4914168;29;20466;-71
2023/06/02 06:35:30;;;;;;;23.30;6.97;;;;;;;13.43;75.04;101318.97;4918132;29;20840;-70
2023/06/02 06:38:03;;;;;;;13.03;6.17;;;;;;;13.60;74.01;101321.25;4912666;29;20412;-73
2023/06/02 06:40:34;;;;;;;13.70;7.63;;;;;;;13.59;74.04;101325.00;4913831;29;20920;-72
2023/06/02 06:43:03;;;;;;;21.63;6.20;;;;;;;14.17;72.63;101329.47;4914153;29;20503;-70
2023/06/02 06:46:00;;;;;;;14.70;5.43;;;;;;;14.66;69.94;101330.72;4915453;29;20481;-70
2023/06/02 06:48:29;;;;;;;17.20;6.03;;;;;;;14.51;70.15;101320.13;4913673;29;20512;-69
2023/06/02 06:50:59;;;;;;;20.93;7.47;;;;;;;14.59;70.60;101335.38;4915140;29;20516;-71
2023/06/02 06:53:28;;;;;;;10.43;5.40;;;;;;;14.79;70.05;101339.66;4914879;29;20439;-69
2023/06/02 06:55:59;;;;;;;13.37;5.73;;;;;;;15.15;68.65;101338.16;4915332;29;21055;-70
2023/06/02 06:58:28;;;;;;;17.30;5.80;;;;;;;14.54;69.70;101335.19;4914749;29;20455;-71
2023/06/02 07:00:58;;;;;;;22.13;8.37;;;;;;;14.76;69.79;101340.06;4920656;29;20400;-70
2023/06/02 07:03:27;;;;;;;14.30;6.90;;;;;;;14.64;69.96;101347.28;4914432;29;20469;-69
2023/06/02 07:05:56;;;;;;;16.43;6.70;;;;;;;14.87;70.19;101345.88;4914262;29;20445;-70
2023/06/02 07:08:25;;;;;;;13.20;5.37;;;;;;;15.21;67.83;101351.72;4914131;29;20451;-69
2023/06/02 07:10:54;;;;;;;10.83;5.77;;;;;;;15.26;68.23;101352.94;4910797;29;20408;-70
2023/06/02 07:13:26;;;;;;;19.40;7.30;;;;;;;15.14;69.33;101350.13;4914955;29;20437;-71
2023/06/02 07:15:56;;;;;;;10.43;5.93;;;;;;;14.89;70.17;101352.81;4913920;29;20490;-70
2023/06/02 07:18:25;;;;;;;16.47;7.10;;;;;;;14.57;71.33;101353.84;4913478;29;20469;-71
2023/06/02 07:20:54;;;;;;;30.27;8.80;;;;;;;14.68;71.56;101355.84;4918415;29;20485;-69
2023/06/02 07:23:23;;;;;;;18.73;6.77;;;;;;;14.68;71.45;101364.03;4911680;29;20460;-71
2023/06/02 07:25:52;;;;;;;15.87;6.27;;;;;;;14.69;71.74;101357.53;4924557;29;20779;-71
2023/06/02 07:28:21;;;;;;;12.87;6.23;;;;;;;14.98;70.91;101359.66;4911091;29;20414;-69
2023/06/02 07:31:08;;;;;;;18.50;7.20;;;;;;;15.36;70.29;101364.19;4914825;29;20404;-69
2023/06/02 07:33:39;;;;;;;12.10;6.20;;;;;;;15.59;69.29;101364.44;4919142;29;20432;-69
2023/06/02 07:36:08;;;;;;;21.17;8.37;;;;;;;15.26;70.28;101366.56;4923749;29;20536;-71
2023/06/02 07:38:37;;;;;;;18.37;8.17;;;;;;;15.19;71.30;101367.47;4915749;29;20439;-69
2023/06/02 07:41:07;;;;;;;18.17;6.30;;;;;;;15.40;70.83;101368.97;4934570;28;20975;-71
2023/06/02 07:43:35;;;;;;;10.90;5.27;;;;;;;15.48;69.99;101365.16;4919693;29;20433;-68
2023/06/02 07:46:04;;;;;;;11.10;5.37;;;;;;;15.49;69.29;101366.84;4918325;29;20524;-73
2023/06/02 07:48:35;;;;;;;9.60;5.87;;;;;;;15.72;69.05;101367.06;4920523;29;20433;-70
2023/06/02 07:51:04;;;;;;;10.70;6.20;;;;;;;15.64;68.80;101368.16;4920499;29;20424;-72
2023/06/02 07:53:33;;;;;;;11.17;4.87;;;;;;;15.64;68.95;101370.06;4921043;29;20459;-70
2023/06/02 07:56:03;;;;;;;9.60;5.70;;;;;;;15.69;68.52;101377.56;4921463;29;20837;-71
2023/06/02 07:58:32;;;;;;;8.20;4.60;;;;;;;15.68;68.19;101375.94;4917116;29;20524;-70
2023/06/02 08:01:01;;;;;;;7.77;5.00;;;;;;;15.75;68.33;101372.06;4918615;29;20407;-71
2023/06/02 08:03:30;;;;;;;9.00;5.13;;;;;;;15.80;67.48;101385.88;4918774;29;20411;-71
2023/06/02 08:06:01;;;;;;;6.67;5.10;;;;;;;15.87;67.04;101381.19;4927572;29;20433;-71
2023/06/02 08:08:30;;;;;;;8.60;5.03;;;;;;;15.81;67.21;101381.25;4918116;29;20853;-71
2023/06/02 08:10:59;;;;;;;5.37;4.87;;;;;;;15.58;68.30;101382.72;4917291;29;20416;-70
2023/06/02 08:13:29;;;;;;;5.57;3.70;;;;;;;15.56;67.63;101386.72;4920660;29;20470;-70
2023/06/02 08:15:59;;;;;;;5.80;4.63;;;;;;;15.40;68.34;101388.06;4919937;29;20545;-70
2023/06/02 08:18:49;;;;;;;12.53;5.43;;;;;;;15.45;68.99;101388.25;4917402;29;20417;-70
2023/06/02 08:21:19;;;;;;;7.90;4.00;;;;;;;15.61;68.80;101398.63;4916491;29;20412;-68
2023/06/02 08:23:49;;;;;;;10.33;5.60;;;;;;;15.58;68.97;101393.63;4921717;29;20413;-69
2023/06/02 08:26:18;;;;;;;5.40;3.63;;;;;;;15.81;68.07;101395.72;4916817;29;21001;-70
2023/06/02 08:28:49;;;;;;;13.53;4.40;;;;;;;15.83;67.46;101398.25;4917287;29;20781;-71
2023/06/02 08:31:20;;;;;;;7.73;4.67;;;;;;;16.26;66.20;101390.03;4916960;29;20425;-72
2023/06/02 08:33:52;;;;;;;6.57;4.33;;;;;;;16.36;65.36;101384.84;4914325;29;20404;-68
2023/06/02 08:36:23;;;;;;;13.57;4.10;;;;;;;17.18;63.62;101394.28;4916630;29;20822;-71
2023/06/02 08:38:52;;;;;;;10.50;3.57;;;;;;;17.37;59.28;101393.16;4914119;29;20807;-70
2023/06/02 08:41:21;;;;;;;13.47;3.50;;;;;;;17.44;55.41;101382.91;4915800;29;20919;-68
2023/06/02 08:43:52;;;;;;;4.50;3.30;;;;;;;17.38;56.56;101392.06;4915407;29;20408;-72
2023/06/02 08:46:21;;;;;;;4.00;2.53;;;;;;;17.34;55.54;101388.97;4915174;29;21050;-70
2023/06/02 08:48:55;;;;;;;4.00;2.33;;;;;;;17.56;54.05;101391.97;4909647;29;20437;-70
2023/06/02 08:51:26;;;;;;;6.57;2.60;;;;;;;17.63;52.94;101392.72;4920960;29;20787;-71
2023/06/02 08:53:55;;;;;;;5.87;3.00;;;;;;;17.79;52.00;101392.03;4917839;29;20405;-73
2023/06/02 08:56:25;;;;;;;6.10;2.43;;;;;;;17.75;51.23;101382.63;4919409;29;20516;-70
2023/06/02 08:58:54;;;;;;;3.77;3.10;;;;;;;18.17;50.39;101398.91;4921449;29;20444;-70
2023/06/02 09:01:23;;;;;;;3.30;3.00;;;;;;;17.94;50.56;101399.75;4916380;29;20414;-70
2023/06/02 09:03:52;;;;;;;3.80;2.20;;;;;;;18.16;46.75;101391.75;4915632;29;20831;-71
2023/06/02 09:06:22;;;;;;;2.63;1.90;;;;;;;18.10;47.01;101403.69;4917387;29;20495;-71
2023/06/02 09:09:00;;;;;;;2.40;2.07;;;;;;;18.28;47.01;101389.84;4913489;29;20404;-71
2023/06/02 09:11:31;;;;;;;5.73;3.10;;;;;;;18.64;45.72;101394.19;4918080;29;20465;-69
2023/06/02 09:14:00;;;;;;;5.67;3.73;;;;;;;18.18;44.16;101400.56;4918140;29;20922;-71
2023/06/02 09:16:41;;;;;;;2.70;2.13;;;;;;;17.85;43.70;101398.47;4917819;29;20463;-69
2023/06/02 09:19:10;;;;;;;5.20;2.70;;;;;;;17.81;45.17;101408.22;4906830;29;20427;-70
2023/06/02 09:21:39;;;;;;;8.40;1.90;;;;;;;18.10;42.83;101401.78;4916025;29;20544;-70
2023/06/02 09:24:10;;;;;;;2.00;1.50;;;;;;;18.39;40.70;101410.91;4916425;29;20453;-67
2023/06/02 09:26:50;;;;;;;3.57;1.27;;;;;;;18.43;38.57;101403.88;4923053;29;20443;-70
2023/06/02 09:29:19;;;;;;;3.60;1.70;;;;;;;17.93;38.55;101405.47;4914075;29;20412;-66
2023/06/02 09:31:51;;;;;;;3.33;1.90;;;;;;;18.11;39.07;101410.81;4928444;29;20744;-68
2023/06/02 09:34:21;;;;;;;5.70;1.93;;;;;;;18.92;38.74;101431.78;4930590;29;20846;-69
2023/06/02 09:36:52;;;;;;;4.80;2.03;;;;;;;19.02;38.26;101429.22;4928635;29;20461;-68
2023/06/02 09:39:34;;;;;;;2.50;1.63;;;;;;;19.17;37.77;101432.25;4917363;29;20436;-67
2023/06/02 09:42:04;;;;;;;2.93;1.40;;;;;;;18.95;36.80;101439.50;4917082;29;20411;-70
2023/06/02 09:44:33;;;;;;;3.07;1.80;;;;;;;18.88;36.96;101439.63;4918530;29;20445;-69
2023/06/02 09:47:03;;;;;;;3.60;1.60;;;;;;;18.89;37.59;101418.53;4911990;29;20451;-70
2023/06/02 09:49:40;;;;;;;4.17;2.00;;;;;;;18.87;37.51;101439.91;4917181;29;20488;-70
2023/06/02 09:52:14;;;;;;;7.10;1.90;;;;;;;19.22;37.27;101446.06;4919194;29;20473;-68
2023/06/02 09:54:45;;;;;;;7.93;1.70;;;;;;;19.38;36.49;101444.44;4916503;29;20483;-68
2023/06/02 09:57:15;;;;;;;1.90;1.53;;;;;;;19.28;35.57;101439.59;4916521;29;20501;-70
2023/06/02 09:59:45;;;;;;;3.13;1.63;;;;;;;19.38;35.91;101445.25;4915728;29;20441;-69
2023/06/02 10:02:15;;;;;;;3.33;1.77;;;;;;;19.25;36.36;101440.09;4918498;29;20973;-70
2023/06/02 10:04:45;;;;;;;9.20;1.77;;;;;;;19.90;36.00;101434.91;4916411;29;20412;-69
2023/06/02 10:07:30;;;;;;;2.30;1.37;;;;;;;20.02;35.19;101434.00;4917107;29;20442;-69
2023/06/02 10:10:17;;;;;;;3.60;1.90;;;;;;;19.46;36.55;101446.81;4914589;29;20411;-69
2023/06/02 10:13:11;;;;;;;6.40;1.97;;;;;;;19.14;37.29;101454.69;4915500;29;20982;-69
2023/06/02 10:15:59;;;;;;;6.10;2.10;;;;;;;19.62;36.60;101450.63;4914426;29;20951;-71
2023/06/02 10:18:52;;;;;;;3.80;1.40;;;;;;;19.63;35.90;101460.56;4925648;29;20442;-68
2023/06/02 10:21:31;;;;;;;2.90;2.40;;;;;;;19.69;35.81;101456.81;4915669;29;20532;-69
2023/06/02 10:24:09;;;;;;;2.60;1.63;;;;;;;19.26;36.87;101458.22;4916359;29;20410;-70
2023/06/02 10:26:58;;;;;;;4.60;1.90;;;;;;;18.90;37.29;101470.41;4922327;29;20842;-69
2023/06/02 10:29:28;;;;;;;3.80;1.97;;;;;;;19.15;37.53;101463.75;4922774;29;20412;-69
2023/06/02 10:31:57;;;;;;;2.40;1.50;;;;;;;19.32;37.16;101465.44;4913698;29;20464;-69
2023/06/02 10:34:40;;;;;;;3.30;1.67;;;;;;;19.02;37.27;101467.63;4914238;29;20651;-67
2023/06/02 10:37:16;;;;;;;2.50;1.27;;;;;;;19.58;36.77;101465.94;4915928;29;20604;-68
2023/06/02 10:39:51;;;;;;;3.23;1.90;;;;;;;19.34;37.19;101463.31;4916393;29;20478;-70
2023/06/02 10:42:23;;;;;;;7.27;1.30;;;;;;;19.17;37.61;101464.34;4914796;29;20403;-71
2023/06/02 10:44:53;;;;;;;10.73;2.07;;;;;;;19.03;38.01;101452.81;4915694;29;20437;-70
2023/06/02 10:47:35;;;;;;;4.83;2.07;;;;;;;18.88;38.79;101460.78;4915681;29;20446;-70
2023/06/02 10:50:10;;;;;;;3.27;1.90;;;;;;;18.85;39.27;101455.75;4915083;29;20416;-70
2023/06/02 10:53:09;;;;;;;2.97;1.40;;;;;;;19.56;38.67;101451.66;4916168;29;20423;-71
2023/06/02 10:55:41;;;;;;;3.60;1.60;;;;;;;19.56;38.02;101457.16;4914520;29;20465;-70
2023/06/02 10:58:12;;;;;;;2.87;1.30;;;;;;;19.37;38.41;101449.09;4915366;29;20472;-72
2023/06/02 11:00:45;;;;;;;1.80;1.40;;;;;;;19.48;37.92;101456.47;4924275;29;20479;-73
2023/06/02 11:03:33;;;;;;;5.37;1.90;;;;;;;19.74;37.56;101456.91;4913191;29;20525;-70
2023/06/02 11:06:19;;;;;;;3.20;1.60;;;;;;;20.08;36.83;101450.31;4920310;29;20844;-71
2023/06/02 11:08:51;;;;;;;5.33;1.30;;;;;;;19.70;38.12;101455.75;4915751;29;20423;-70
2023/06/02 11:11:51;;;;;;;1.60;1.07;;;;;;;19.49;38.54;101454.56;4915663;29;20650;-69
2023/06/02 11:14:22;;;;;;;2.97;1.60;;;;;;;19.44;38.26;101455.28;4918097;29;20907;-68
2023/06/02 11:17:29;;;;;;;2.50;1.40;;;;;;;19.98;38.38;101441.91;4917578;29;20467;-68
2023/06/02 11:19:59;;;;;;;2.27;1.33;;;;;;;19.82;37.68;101442.75;4915799;29;20844;-68
2023/06/02 11:22:28;;;;;;;7.80;1.47;;;;;;;19.26;37.12;101446.41;4916953;29;20445;-68
2023/06/02 11:24:57;;;;;;;2.57;1.30;;;;;;;19.20;37.61;101447.38;4918725;29;20460;-71
2023/06/02 11:27:43;;;;;;;3.43;1.50;;;;;;;19.21;36.83;101444.41;5236369;23;20526;-71
2023/06/02 11:30:16;;;;;;;3.00;1.30;;;;;;;19.46;37.03;101446.81;4896621;29;20418;-72
2023/06/02 11:32:48;;;;;;;3.30;1.40;;;;;;;19.39;35.79;101440.63;4901696;29;20465;-72
2023/06/02 11:35:19;;;;;;;3.77;1.03;;;;;;;19.31;36.16;101444.59;4897967;29;20945;-72
2023/06/02 11:38:02;;;;;;;4.23;2.00;;;;;;;19.40;35.69;101447.78;4903612;29;20444;-72
2023/06/02 11:40:34;;;;;;;2.60;1.10;;;;;;;19.07;35.76;101454.81;4906303;29;20421;-72
2023/06/02 11:43:03;;;;;;;5.67;1.40;;;;;;;18.94;36.73;101457.88;4900471;29;20420;-71